AirNav   Pilot Hours Calculator
 
 523 users online  

0MS2 Morgan Field Airport
Seminary, Mississippi, USA

GOING TO SEMINARY?


FAA INFORMATION EFFECTIVE 05 DECEMBER 2019

Location

FAA Identifier: 0MS2
Lat/Long: 31-32-30.6010N 089-23-30.2290W
31-32.510017N 089-23.503817W
31.5418336,-89.3917303
(estimated)
Elevation: 300 ft. / 91 m (estimated)
Variation: 02E (1985)
From city: 5 miles W of SEMINARY, MS
Time zone: UTC -6 (UTC -5 during Daylight Saving Time)
Zip code: 39479

Airport Operations

Airport use: Private use. Permission required prior to landing
Activation date: 12/1985
Control tower: no
ARTCC: HOUSTON CENTER
FSS: GREENWOOD FLIGHT SERVICE STATION
Attendance: CONTINUOUS
Wind indicator: yes
Segmented circle: no
Lights: FOR LIRL RWY 18/36 CALL 601-752-6854.

Airport Communications

WX AWOS-3PT at PIB (5 nm SE): 128.325 (601-584-6701)
WX AWOS-3 at LUL (14 nm NE): 119.275 (601-425-9792)
WX ASOS at HBG (18 nm SE): 135.425 (601-544-2185)

Nearby radio navigation aids

VOR radial/distance  VOR name  Freq  Var
LBYr334/7.9EATON VORTAC110.6005E

Airport Services

Runway Information

Runway 18/36

Dimensions: 2300 x 75 ft. / 701 x 23 m
Surface: turf
RUNWAY 18  RUNWAY 36
Traffic pattern: leftleft

Airport Ownership and Management from official FAA records

Ownership: Privately-owned
Owner: CHARLES E. MORGAN
1336 MIS RD
SEMINARY, MS 39479
Phone 601-752-6854

Additional Remarks

FOR CD CTC HOUSTON ARTCC AT 281-230-5622.

Instrument Procedures

There are no published instrument procedures at 0MS2.

Some nearby airports with instrument procedures:

KPIB - Hattiesburg-Laurel Regional Airport (5 nm SE)
KLUL - Hesler-Noble Field Airport (14 nm NE)
KHBG - Hattiesburg Bobby L Chain Municipal Airport (18 nm SE)
0R0 - Columbia-Marion County Airport (26 nm SW)
M43 - Prentiss-Jefferson Davis County Airport (27 nm W)
 
Loc | Ops | Rwys | IFR | FBO | Links
Com | Nav | Svcs | Stats | Notes
Area around 0MS2 (Morgan Field Airport)
 
Road maps at: MapQuest Bing Google
 
Aerial photo
No photo
 
Sectional chart

 
Airport distance calculator
Flying to Morgan Field Airport? Find the distance to fly.

From to 0MS2

Sunrise and sunset
Times for 13-Dec-2019
 Local
(UTC-6)
 Zulu
(UTC)
Morning civil twilight06:2212:22
Sunrise06:4912:49
Sunset16:5422:54
Evening civil twilight17:2123:21

Current date and time
Zulu (UTC)  13-Dec-2019 06:10:54
Local (UTC-6)  13-Dec-2019 00:10:54
 
METAR
KLUL 
5nm SE 
130555Z AUTO 09005KT 4SM DZ BR OVC004 08/08 A3015 RMK A02 P0002 T00820078 10082 20074 60008
KPIB 
6nm SE 
130556Z AUTO 08004KT 5SM -RA BR OVC004 08/08 A3015 RMK AO2 RAE17B33 CIG 002V007 SLP210 6//// T00780078 10078 20078 400890011 58019 PNO $
KHBG 
18nm SE 
130553Z AUTO 07003KT 2 1/2SM -RA BR OVC003 08/08 A3015 RMK AO2 RAE08B44 SLPNO P0000 60004 T00830078 10089 20083 400890083 58019
TAF
KPIB 
6nm SE 
130540Z 1306/1406 05003KT 4SM -RA BR BKN004 OVC015 FM130700 09002KT 4SM -RA BR OVC003 FM131000 00000KT 1/2SM FG OVC003 FM131700 29003KT 1 1/2SM BR OVC003 FM131900 29003KT 6SM BR OVC007 FM132100 30003KT P6SM OVC015
KHBG 
18nm SE 
130540Z 1306/1406 05003KT 4SM -RA BR BKN004 OVC015 FM130700 09002KT 4SM -RA BR OVC003 FM131000 00000KT 1/2SM FG OVC003 FM131700 29003KT 1 1/2SM BR OVC003 FM131900 29003KT 6SM BR OVC007 FM132100 30003KT P6SM OVC015
NOTAMs
Click for the latest NOTAMs
NOTAMs are issued by the DoD/FAA and will open in a separate window not controlled by AirNav.

 

 
 

Would you like to see your business listed on this page?

 If your business provides an interesting product or service to pilots, flight crews, aircraft, or users of the Morgan Field Airport, you should consider listing it here.  To start the listing process, click on the button below
 
Add a business
 

Other Pages about Morgan Field Airport

Update a link
 
Copyright © AirNav, LLC. All rights reserved. Privacy Policy  Contact